Primrose, Nebraska
Current Conditions -  °F | °C
As of 2:15 AM on Sunday 21 Dec 2014 (Local Time) from KBVN Reporting Station
Moderate Fog Moderate Fog  
Wind Chill: 25°   Ceiling: 100
Heat Index: 31°   Visibility: 0.5mi
Dew Point: 30°   Wind: 7mph
Humidity: 94%   Direction: 160°SSE
Pressure: 29.88"   Gusts: NA
Location:  41.62°N, 98.24°W
Report Text: KBVN 210815Z AUTO 16006KT 1/2SM FZFG OVC001 00/M01 A2988 RMK AO2 T10031011
Loading
Personal Weather Stations






























Interactive Weather Map New forecast layout! Learn more

10-Day Weather Forecast

Advertisements
Track Severe Weather on mobile